sensor_id;sensor_type;location;lat;lon;timestamp;pressure;altitude;pressure_sealevel;temperature;humidity
77893;BME280;67087;50.094;14.338;2023-05-07T00:01:11;98236.81;;;24.50;25.97
77893;BME280;67087;50.094;14.338;2023-05-07T00:03:36;98234.61;;;24.69;26.00
77893;BME280;67087;50.094;14.338;2023-05-07T00:06:01;98235.30;;;24.47;25.83
77893;BME280;67087;50.094;14.338;2023-05-07T00:08:27;98236.57;;;24.72;25.94
77893;BME280;67087;50.094;14.338;2023-05-07T00:10:52;98238.65;;;24.66;26.10
77893;BME280;67087;50.094;14.338;2023-05-07T00:13:18;98242.92;;;24.71;25.69
77893;BME280;67087;50.094;14.338;2023-05-07T00:15:43;98241.60;;;24.66;25.81
77893;BME280;67087;50.094;14.338;2023-05-07T00:18:08;98237.62;;;24.68;25.98
77893;BME280;67087;50.094;14.338;2023-05-07T00:20:34;98236.76;;;24.68;25.96
77893;BME280;67087;50.094;14.338;2023-05-07T00:23:00;98234.20;;;24.71;25.97
77893;BME280;67087;50.094;14.338;2023-05-07T00:25:25;98232.59;;;24.71;25.90
77893;BME280;67087;50.094;14.338;2023-05-07T00:27:50;98233.32;;;24.67;25.88
77893;BME280;67087;50.094;14.338;2023-05-07T00:30:15;98233.87;;;24.68;25.56
77893;BME280;67087;50.094;14.338;2023-05-07T00:32:40;98235.19;;;24.71;25.77
77893;BME280;67087;50.094;14.338;2023-05-07T00:35:07;98238.86;;;24.45;25.51
77893;BME280;67087;50.094;14.338;2023-05-07T00:37:30;98238.55;;;24.45;25.51
77893;BME280;67087;50.094;14.338;2023-05-07T00:39:56;98234.54;;;24.67;25.59
77893;BME280;67087;50.094;14.338;2023-05-07T00:42:22;98234.05;;;24.73;25.56
77893;BME280;67087;50.094;14.338;2023-05-07T00:44:47;98236.14;;;24.75;25.60
77893;BME280;67087;50.094;14.338;2023-05-07T00:47:13;98232.76;;;24.73;25.58
77893;BME280;67087;50.094;14.338;2023-05-07T00:49:39;98235.49;;;24.70;25.62
77893;BME280;67087;50.094;14.338;2023-05-07T00:52:03;98234.71;;;24.52;25.38
77893;BME280;67087;50.094;14.338;2023-05-07T00:54:28;98235.52;;;24.74;25.70
77893;BME280;67087;50.094;14.338;2023-05-07T00:56:54;98238.27;;;24.76;25.54
77893;BME280;67087;50.094;14.338;2023-05-07T00:59:19;98242.84;;;24.77;25.54
77893;BME280;67087;50.094;14.338;2023-05-07T01:01:45;98244.67;;;24.75;25.77
77893;BME280;67087;50.094;14.338;2023-05-07T01:04:10;98245.94;;;24.74;25.75
77893;BME280;67087;50.094;14.338;2023-05-07T01:06:36;98248.14;;;24.80;25.28
77893;BME280;67087;50.094;14.338;2023-05-07T01:09:01;98242.09;;;24.52;25.62
77893;BME280;67087;50.094;14.338;2023-05-07T01:11:26;98242.50;;;24.78;25.19
77893;BME280;67087;50.094;14.338;2023-05-07T01:13:52;98241.37;;;25.25;25.53
77893;BME280;67087;50.094;14.338;2023-05-07T01:16:18;98242.86;;;24.61;25.51
77893;BME280;67087;50.094;14.338;2023-05-07T01:18:43;98246.52;;;25.08;25.53
77893;BME280;67087;50.094;14.338;2023-05-07T01:21:11;98246.29;;;24.41;25.22
77893;BME280;67087;50.094;14.338;2023-05-07T01:23:34;98250.42;;;24.82;25.31
77893;BME280;67087;50.094;14.338;2023-05-07T01:26:00;98253.21;;;24.80;25.45
77893;BME280;67087;50.094;14.338;2023-05-07T01:28:25;98254.39;;;25.10;25.50
77893;BME280;67087;50.094;14.338;2023-05-07T01:30:52;98249.49;;;24.87;25.07
77893;BME280;67087;50.094;14.338;2023-05-07T01:33:19;98249.90;;;24.56;24.90
77893;BME280;67087;50.094;14.338;2023-05-07T01:35:45;98249.60;;;24.89;25.03
77893;BME280;67087;50.094;14.338;2023-05-07T01:38:08;98249.08;;;24.54;25.16
77893;BME280;67087;50.094;14.338;2023-05-07T01:40:32;98248.09;;;24.85;25.40
77893;BME280;67087;50.094;14.338;2023-05-07T01:42:57;98246.63;;;24.87;25.05
77893;BME280;67087;50.094;14.338;2023-05-07T01:45:23;98243.93;;;24.80;25.41
77893;BME280;67087;50.094;14.338;2023-05-07T01:47:49;98243.59;;;24.82;25.44
77893;BME280;67087;50.094;14.338;2023-05-07T01:50:16;98247.56;;;24.56;25.47
77893;BME280;67087;50.094;14.338;2023-05-07T01:52:38;98251.60;;;24.84;25.21
77893;BME280;67087;50.094;14.338;2023-05-07T01:55:05;98251.34;;;24.33;25.34
77893;BME280;67087;50.094;14.338;2023-05-07T01:57:29;98251.22;;;24.81;25.25
77893;BME280;67087;50.094;14.338;2023-05-07T01:59:54;98253.34;;;24.81;25.09
77893;BME280;67087;50.094;14.338;2023-05-07T02:02:19;98255.52;;;24.81;25.30
77893;BME280;67087;50.094;14.338;2023-05-07T02:04:44;98258.40;;;24.77;25.27
77893;BME280;67087;50.094;14.338;2023-05-07T02:07:09;98262.97;;;24.49;25.56
77893;BME280;67087;50.094;14.338;2023-05-07T02:09:34;98261.53;;;24.69;25.22
77893;BME280;67087;50.094;14.338;2023-05-07T02:12:00;98260.54;;;24.69;25.49
77893;BME280;67087;50.094;14.338;2023-05-07T02:14:25;98261.07;;;24.73;25.33
77893;BME280;67087;50.094;14.338;2023-05-07T02:16:50;98260.12;;;24.67;25.46
77893;BME280;67087;50.094;14.338;2023-05-07T02:19:16;98257.26;;;24.67;25.25
77893;BME280;67087;50.094;14.338;2023-05-07T02:21:41;98254.56;;;24.68;25.43
77893;BME280;67087;50.094;14.338;2023-05-07T02:24:06;98254.10;;;24.69;25.42
77893;BME280;67087;50.094;14.338;2023-05-07T02:26:31;98251.74;;;24.64;25.50
77893;BME280;67087;50.094;14.338;2023-05-07T02:28:56;98254.57;;;24.94;25.16
77893;BME280;67087;50.094;14.338;2023-05-07T02:31:22;98258.07;;;24.66;25.48
77893;BME280;67087;50.094;14.338;2023-05-07T02:33:47;98257.25;;;24.65;25.29
77893;BME280;67087;50.094;14.338;2023-05-07T02:36:13;98252.79;;;24.37;25.43
77893;BME280;67087;50.094;14.338;2023-05-07T02:38:38;98253.85;;;24.64;25.34
77893;BME280;67087;50.094;14.338;2023-05-07T02:41:03;98251.63;;;24.18;25.27
77893;BME280;67087;50.094;14.338;2023-05-07T02:43:28;98254.28;;;24.62;24.95
77893;BME280;67087;50.094;14.338;2023-05-07T02:46:01;98260.34;;;24.66;25.32
77893;BME280;67087;50.094;14.338;2023-05-07T02:48:19;98262.06;;;24.66;25.35
77893;BME280;67087;50.094;14.338;2023-05-07T02:50:44;98263.84;;;24.58;25.51
77893;BME280;67087;50.094;14.338;2023-05-07T02:53:10;98256.93;;;24.33;25.16
77893;BME280;67087;50.094;14.338;2023-05-07T02:55:35;98256.60;;;24.88;25.04
77893;BME280;67087;50.094;14.338;2023-05-07T02:58:01;98254.47;;;24.58;25.29
77893;BME280;67087;50.094;14.338;2023-05-07T03:00:26;98256.80;;;24.34;25.36
77893;BME280;67087;50.094;14.338;2023-05-07T03:02:51;98262.34;;;24.56;25.47
77893;BME280;67087;50.094;14.338;2023-05-07T03:05:16;98267.15;;;24.50;25.38
77893;BME280;67087;50.094;14.338;2023-05-07T03:07:41;98268.75;;;24.52;25.35
77893;BME280;67087;50.094;14.338;2023-05-07T03:10:07;98268.56;;;24.31;25.25
77893;BME280;67087;50.094;14.338;2023-05-07T03:12:32;98270.49;;;24.58;25.42
77893;BME280;67087;50.094;14.338;2023-05-07T03:14:57;98269.79;;;24.53;25.38
77893;BME280;67087;50.094;14.338;2023-05-07T03:17:22;98268.58;;;24.52;25.39
77893;BME280;67087;50.094;14.338;2023-05-07T03:19:48;98262.10;;;24.50;25.36
77893;BME280;67087;50.094;14.338;2023-05-07T03:22:13;98258.43;;;24.52;25.31
77893;BME280;67087;50.094;14.338;2023-05-07T03:24:39;98254.88;;;24.58;25.35
77893;BME280;67087;50.094;14.338;2023-05-07T03:27:04;98255.48;;;24.25;25.45
77893;BME280;67087;50.094;14.338;2023-05-07T03:29:29;98262.67;;;24.50;25.48
77893;BME280;67087;50.094;14.338;2023-05-07T03:31:55;98267.59;;;24.52;25.42
77893;BME280;67087;50.094;14.338;2023-05-07T03:34:20;98268.60;;;24.52;25.27
77893;BME280;67087;50.094;14.338;2023-05-07T03:36:45;98261.30;;;24.48;25.39
77893;BME280;67087;50.094;14.338;2023-05-07T03:39:11;98262.27;;;24.52;25.42
77893;BME280;67087;50.094;14.338;2023-05-07T03:41:36;98262.22;;;24.48;25.41
77893;BME280;67087;50.094;14.338;2023-05-07T03:44:02;98259.87;;;24.26;25.10
77893;BME280;67087;50.094;14.338;2023-05-07T03:46:27;98266.41;;;24.46;25.45
77893;BME280;67087;50.094;14.338;2023-05-07T03:48:53;98272.28;;;24.44;25.03
77893;BME280;67087;50.094;14.338;2023-05-07T03:51:18;98271.76;;;24.47;25.47
77893;BME280;67087;50.094;14.338;2023-05-07T03:53:43;98266.33;;;24.42;25.54
77893;BME280;67087;50.094;14.338;2023-05-07T03:56:09;98250.71;;;24.42;25.31
77893;BME280;67087;50.094;14.338;2023-05-07T03:58:34;98250.54;;;24.47;25.37
77893;BME280;67087;50.094;14.338;2023-05-07T04:00:59;98251.09;;;24.78;25.33
77893;BME280;67087;50.094;14.338;2023-05-07T04:03:25;98253.61;;;24.69;25.31
77893;BME280;67087;50.094;14.338;2023-05-07T04:05:50;98258.88;;;24.41;25.46
77893;BME280;67087;50.094;14.338;2023-05-07T04:08:16;98261.93;;;24.41;25.50
77893;BME280;67087;50.094;14.338;2023-05-07T04:10:41;98268.66;;;24.41;25.49
77893;BME280;67087;50.094;14.338;2023-05-07T04:13:06;98270.08;;;24.15;25.46
77893;BME280;67087;50.094;14.338;2023-05-07T04:15:31;98272.87;;;24.43;25.28
77893;BME280;67087;50.094;14.338;2023-05-07T04:17:57;98277.12;;;24.44;25.46
77893;BME280;67087;50.094;14.338;2023-05-07T04:20:22;98283.37;;;24.47;25.24
77893;BME280;67087;50.094;14.338;2023-05-07T04:22:48;98284.13;;;24.37;25.45
77893;BME280;67087;50.094;14.338;2023-05-07T04:25:13;98283.16;;;24.41;25.45
77893;BME280;67087;50.094;14.338;2023-05-07T04:27:38;98289.93;;;24.90;25.49
77893;BME280;67087;50.094;14.338;2023-05-07T04:30:04;98293.91;;;24.22;25.47
77893;BME280;67087;50.094;14.338;2023-05-07T04:32:28;98295.30;;;24.48;25.24
77893;BME280;67087;50.094;14.338;2023-05-07T04:34:54;98295.63;;;24.70;25.21
77893;BME280;67087;50.094;14.338;2023-05-07T04:37:20;98293.34;;;24.40;25.19
77893;BME280;67087;50.094;14.338;2023-05-07T04:39:45;98293.13;;;24.42;25.07
77893;BME280;67087;50.094;14.338;2023-05-07T04:42:14;98294.88;;;24.69;25.31
77893;BME280;67087;50.094;14.338;2023-05-07T04:44:35;98294.41;;;24.47;25.37
77893;BME280;67087;50.094;14.338;2023-05-07T04:47:01;98298.55;;;24.45;25.20
77893;BME280;67087;50.094;14.338;2023-05-07T04:49:26;98297.64;;;24.39;25.43
77893;BME280;67087;50.094;14.338;2023-05-07T04:51:51;98298.46;;;24.70;25.35
77893;BME280;67087;50.094;14.338;2023-05-07T04:54:16;98298.79;;;24.47;25.09
77893;BME280;67087;50.094;14.338;2023-05-07T04:56:41;98301.66;;;24.70;25.25
77893;BME280;67087;50.094;14.338;2023-05-07T04:59:06;98306.36;;;24.43;25.29
77893;BME280;67087;50.094;14.338;2023-05-07T05:01:32;98309.90;;;24.42;24.92
77893;BME280;67087;50.094;14.338;2023-05-07T05:03:57;98312.69;;;24.69;25.22
77893;BME280;67087;50.094;14.338;2023-05-07T05:06:23;98313.39;;;24.48;25.07
77893;BME280;67087;50.094;14.338;2023-05-07T05:08:48;98313.24;;;24.48;25.01
77893;BME280;67087;50.094;14.338;2023-05-07T05:11:13;98314.69;;;24.42;25.04
77893;BME280;67087;50.094;14.338;2023-05-07T05:13:39;98316.15;;;24.44;24.93
77893;BME280;67087;50.094;14.338;2023-05-07T05:16:05;98315.73;;;24.30;24.74
77893;BME280;67087;50.094;14.338;2023-05-07T05:18:29;98320.38;;;24.41;25.19
77893;BME280;67087;50.094;14.338;2023-05-07T05:20:54;98323.47;;;24.45;24.98
77893;BME280;67087;50.094;14.338;2023-05-07T05:23:20;98325.32;;;24.17;25.03
77893;BME280;67087;50.094;14.338;2023-05-07T05:25:45;98326.73;;;24.72;25.05
77893;BME280;67087;50.094;14.338;2023-05-07T05:28:10;98329.46;;;24.14;24.66
77893;BME280;67087;50.094;14.338;2023-05-07T05:30:35;98326.57;;;24.43;24.94
77893;BME280;67087;50.094;14.338;2023-05-07T05:33:01;98328.88;;;23.97;25.01
77893;BME280;67087;50.094;14.338;2023-05-07T05:35:26;98327.50;;;24.53;24.90
77893;BME280;67087;50.094;14.338;2023-05-07T05:37:51;98324.35;;;24.45;25.07
77893;BME280;67087;50.094;14.338;2023-05-07T05:40:16;98322.93;;;24.53;24.97
77893;BME280;67087;50.094;14.338;2023-05-07T05:42:41;98326.26;;;24.41;25.12
77893;BME280;67087;50.094;14.338;2023-05-07T05:45:08;98329.62;;;24.30;24.61
77893;BME280;67087;50.094;14.338;2023-05-07T05:47:32;98331.74;;;24.91;24.89
77893;BME280;67087;50.094;14.338;2023-05-07T05:49:57;98329.73;;;24.42;24.82
77893;BME280;67087;50.094;14.338;2023-05-07T05:52:22;98328.70;;;24.46;24.61
77893;BME280;67087;50.094;14.338;2023-05-07T05:54:47;98334.64;;;24.44;24.49
77893;BME280;67087;50.094;14.338;2023-05-07T05:57:12;98331.86;;;24.40;24.96
77893;BME280;67087;50.094;14.338;2023-05-07T05:59:38;98333.68;;;24.52;24.66
77893;BME280;67087;50.094;14.338;2023-05-07T06:02:03;98337.31;;;23.96;24.59
77893;BME280;67087;50.094;14.338;2023-05-07T06:04:28;98336.74;;;24.43;24.89
77893;BME280;67087;50.094;14.338;2023-05-07T06:06:53;98339.05;;;24.89;25.03
77893;BME280;67087;50.094;14.338;2023-05-07T06:09:19;98341.98;;;24.38;25.05
77893;BME280;67087;50.094;14.338;2023-05-07T06:11:44;98347.12;;;24.68;24.85
77893;BME280;67087;50.094;14.338;2023-05-07T06:14:09;98352.62;;;24.41;24.90
77893;BME280;67087;50.094;14.338;2023-05-07T06:16:34;98353.51;;;24.41;24.59
77893;BME280;67087;50.094;14.338;2023-05-07T06:19:00;98355.58;;;24.35;24.88
77893;BME280;67087;50.094;14.338;2023-05-07T06:21:25;98354.86;;;24.43;24.26
77893;BME280;67087;50.094;14.338;2023-05-07T06:23:50;98354.74;;;24.39;24.75
77893;BME280;67087;50.094;14.338;2023-05-07T06:26:15;98357.56;;;24.37;24.76
77893;BME280;67087;50.094;14.338;2023-05-07T06:28:40;98363.47;;;24.60;24.96
77893;BME280;67087;50.094;14.338;2023-05-07T06:31:12;98371.94;;;24.44;24.57
77893;BME280;67087;50.094;14.338;2023-05-07T06:33:31;98374.96;;;24.33;24.65
77893;BME280;67087;50.094;14.338;2023-05-07T06:35:56;98373.18;;;24.38;24.89
77893;BME280;67087;50.094;14.338;2023-05-07T06:38:21;98371.19;;;24.43;24.56
77893;BME280;67087;50.094;14.338;2023-05-07T06:40:48;98373.25;;;24.41;24.87
77893;BME280;67087;50.094;14.338;2023-05-07T06:43:12;98378.45;;;24.49;24.48
77893;BME280;67087;50.094;14.338;2023-05-07T06:45:37;98383.85;;;24.39;24.64
77893;BME280;67087;50.094;14.338;2023-05-07T06:48:03;98385.51;;;24.16;24.60
77893;BME280;67087;50.094;14.338;2023-05-07T06:50:27;98384.98;;;24.40;24.71
77893;BME280;67087;50.094;14.338;2023-05-07T06:52:53;98384.93;;;24.36;24.86
77893;BME280;67087;50.094;14.338;2023-05-07T06:55:18;98386.82;;;24.42;24.46
77893;BME280;67087;50.094;14.338;2023-05-07T06:57:43;98386.74;;;24.80;24.92
77893;BME280;67087;50.094;14.338;2023-05-07T07:00:09;98386.66;;;24.33;24.85
77893;BME280;67087;50.094;14.338;2023-05-07T07:02:33;98390.36;;;24.39;24.81
77893;BME280;67087;50.094;14.338;2023-05-07T07:05:00;98388.07;;;24.36;24.61
77893;BME280;67087;50.094;14.338;2023-05-07T07:07:24;98387.33;;;24.58;24.78
77893;BME280;67087;50.094;14.338;2023-05-07T07:09:49;98397.84;;;24.87;24.72
77893;BME280;67087;50.094;14.338;2023-05-07T07:12:15;98398.40;;;24.28;24.89
77893;BME280;67087;50.094;14.338;2023-05-07T07:14:40;98396.59;;;24.36;24.70
77893;BME280;67087;50.094;14.338;2023-05-07T07:17:05;98386.62;;;24.05;24.78
77893;BME280;67087;50.094;14.338;2023-05-07T07:19:30;98393.15;;;24.81;24.47
77893;BME280;67087;50.094;14.338;2023-05-07T07:21:55;98389.54;;;24.36;24.81
77893;BME280;67087;50.094;14.338;2023-05-07T07:24:21;98402.90;;;24.30;24.59
77893;BME280;67087;50.094;14.338;2023-05-07T07:26:46;98403.80;;;24.52;24.84
77893;BME280;67087;50.094;14.338;2023-05-07T07:29:11;98406.35;;;24.33;24.75
77893;BME280;67087;50.094;14.338;2023-05-07T07:31:36;98406.99;;;24.54;24.79
77893;BME280;67087;50.094;14.338;2023-05-07T07:34:02;98407.53;;;24.32;24.59
77893;BME280;67087;50.094;14.338;2023-05-07T07:36:26;98405.53;;;24.43;24.29
77893;BME280;67087;50.094;14.338;2023-05-07T07:38:53;98406.05;;;24.83;24.66
77893;BME280;67087;50.094;14.338;2023-05-07T07:41:17;98408.63;;;24.49;24.02
77893;BME280;67087;50.094;14.338;2023-05-07T07:43:42;98407.14;;;24.35;24.63
77893;BME280;67087;50.094;14.338;2023-05-07T07:46:07;98411.32;;;24.09;24.50
77893;BME280;67087;50.094;14.338;2023-05-07T07:48:33;98411.43;;;24.32;24.65
77893;BME280;67087;50.094;14.338;2023-05-07T07:50:57;98413.23;;;24.36;24.59
77893;BME280;67087;50.094;14.338;2023-05-07T07:53:23;98416.13;;;24.53;24.75
77893;BME280;67087;50.094;14.338;2023-05-07T07:55:48;98421.31;;;24.39;24.68
77893;BME280;67087;50.094;14.338;2023-05-07T07:58:13;98424.83;;;24.43;24.20
77893;BME280;67087;50.094;14.338;2023-05-07T08:00:38;98426.54;;;24.84;24.52
77893;BME280;67087;50.094;14.338;2023-05-07T08:03:03;98428.78;;;23.88;24.34
77893;BME280;67087;50.094;14.338;2023-05-07T08:05:29;98434.37;;;24.34;24.70
77893;BME280;67087;50.094;14.338;2023-05-07T08:07:54;98430.49;;;24.37;24.32
77893;BME280;67087;50.094;14.338;2023-05-07T08:10:19;98429.55;;;24.80;24.70
77893;BME280;67087;50.094;14.338;2023-05-07T08:12:44;98426.43;;;24.51;24.76
77893;BME280;67087;50.094;14.338;2023-05-07T08:15:10;98428.63;;;24.31;24.54
77893;BME280;67087;50.094;14.338;2023-05-07T08:17:34;98428.85;;;24.34;24.56
77893;BME280;67087;50.094;14.338;2023-05-07T08:20:00;98430.24;;;24.43;24.55
77893;BME280;67087;50.094;14.338;2023-05-07T08:22:25;98431.44;;;24.25;24.78
77893;BME280;67087;50.094;14.338;2023-05-07T08:24:50;98433.68;;;24.33;24.62
77893;BME280;67087;50.094;14.338;2023-05-07T08:27:15;98438.69;;;24.26;24.72
77893;BME280;67087;50.094;14.338;2023-05-07T08:29:40;98438.89;;;24.59;24.60
77893;BME280;67087;50.094;14.338;2023-05-07T08:32:05;98444.21;;;24.07;24.60
77893;BME280;67087;50.094;14.338;2023-05-07T08:34:31;98448.34;;;24.55;24.34
77893;BME280;67087;50.094;14.338;2023-05-07T08:36:56;98447.00;;;24.29;24.66
77893;BME280;67087;50.094;14.338;2023-05-07T08:39:21;98451.17;;;24.56;24.64
77893;BME280;67087;50.094;14.338;2023-05-07T08:41:48;98452.67;;;24.33;24.63
77893;BME280;67087;50.094;14.338;2023-05-07T08:44:12;98450.95;;;24.32;24.27
77893;BME280;67087;50.094;14.338;2023-05-07T08:46:37;98448.91;;;24.28;24.58
77893;BME280;67087;50.094;14.338;2023-05-07T08:49:02;98447.32;;;24.08;24.66
77893;BME280;67087;50.094;14.338;2023-05-07T08:51:27;98445.63;;;24.39;24.23
77893;BME280;67087;50.094;14.338;2023-05-07T08:53:52;98449.06;;;24.81;24.60
77893;BME280;67087;50.094;14.338;2023-05-07T08:56:17;98453.81;;;24.62;24.39
77893;BME280;67087;50.094;14.338;2023-05-07T08:58:43;98457.47;;;24.61;24.63
77893;BME280;67087;50.094;14.338;2023-05-07T09:01:13;98454.99;;;24.36;24.40
77893;BME280;67087;50.094;14.338;2023-05-07T09:03:33;98454.49;;;24.76;24.68
77893;BME280;67087;50.094;14.338;2023-05-07T09:05:58;98457.34;;;24.41;24.47
77893;BME280;67087;50.094;14.338;2023-05-07T09:08:25;98461.84;;;24.46;24.49
77893;BME280;67087;50.094;14.338;2023-05-07T09:10:48;98461.01;;;24.62;24.50
77893;BME280;67087;50.094;14.338;2023-05-07T09:13:14;98459.44;;;24.35;24.46
77893;BME280;67087;50.094;14.338;2023-05-07T09:15:39;98461.66;;;24.57;24.64
77893;BME280;67087;50.094;14.338;2023-05-07T09:18:04;98462.34;;;23.64;24.60
77893;BME280;67087;50.094;14.338;2023-05-07T09:20:30;98466.08;;;24.35;24.71
77893;BME280;67087;50.094;14.338;2023-05-07T09:22:56;98469.05;;;24.36;24.67
77893;BME280;67087;50.094;14.338;2023-05-07T09:25:29;98469.21;;;24.55;24.79
77893;BME280;67087;50.094;14.338;2023-05-07T09:27:46;98464.82;;;24.34;24.73
77893;BME280;67087;50.094;14.338;2023-05-07T09:30:12;98466.66;;;24.37;24.69
77893;BME280;67087;50.094;14.338;2023-05-07T09:32:36;98464.72;;;24.25;24.87
77893;BME280;67087;50.094;14.338;2023-05-07T09:35:02;98471.01;;;24.32;24.81
77893;BME280;67087;50.094;14.338;2023-05-07T09:37:27;98470.09;;;24.31;24.75
77893;BME280;67087;50.094;14.338;2023-05-07T09:39:52;98467.94;;;24.32;24.60
77893;BME280;67087;50.094;14.338;2023-05-07T09:42:23;98466.22;;;24.36;24.76
77893;BME280;67087;50.094;14.338;2023-05-07T09:44:43;98463.85;;;24.85;24.71
77893;BME280;67087;50.094;14.338;2023-05-07T09:47:08;98466.11;;;24.32;24.81
77893;BME280;67087;50.094;14.338;2023-05-07T09:49:35;98467.57;;;24.59;24.75
77893;BME280;67087;50.094;14.338;2023-05-07T09:52:00;98465.80;;;24.56;24.86
77893;BME280;67087;50.094;14.338;2023-05-07T09:54:23;98464.84;;;24.31;24.92
77893;BME280;67087;50.094;14.338;2023-05-07T09:56:49;98465.83;;;24.56;24.93
77893;BME280;67087;50.094;14.338;2023-05-07T09:59:14;98464.57;;;24.17;24.80
77893;BME280;67087;50.094;14.338;2023-05-07T10:01:40;98465.70;;;24.37;24.78
77893;BME280;67087;50.094;14.338;2023-05-07T10:04:04;98467.59;;;24.15;24.78
77893;BME280;67087;50.094;14.338;2023-05-07T10:06:29;98465.83;;;24.40;24.76
77893;BME280;67087;50.094;14.338;2023-05-07T10:08:54;98466.24;;;24.86;24.83
77893;BME280;67087;50.094;14.338;2023-05-07T10:11:19;98465.51;;;24.18;24.40
77893;BME280;67087;50.094;14.338;2023-05-07T10:13:46;98466.31;;;24.43;24.78
77893;BME280;67087;50.094;14.338;2023-05-07T10:16:09;98464.32;;;24.41;24.76
77893;BME280;67087;50.094;14.338;2023-05-07T10:18:34;98467.74;;;24.40;24.53
77893;BME280;67087;50.094;14.338;2023-05-07T10:21:04;98472.23;;;24.44;24.79
77893;BME280;67087;50.094;14.338;2023-05-07T10:23:26;98475.96;;;24.46;24.27
77893;BME280;67087;50.094;14.338;2023-05-07T10:25:50;98474.36;;;24.69;24.63
77893;BME280;67087;50.094;14.338;2023-05-07T10:28:16;98468.26;;;24.66;24.60
77893;BME280;67087;50.094;14.338;2023-05-07T10:30:51;98459.97;;;24.98;24.70
77893;BME280;67087;50.094;14.338;2023-05-07T10:33:07;98453.98;;;24.23;24.61
77893;BME280;67087;50.094;14.338;2023-05-07T10:35:32;98449.98;;;24.68;24.77
77893;BME280;67087;50.094;14.338;2023-05-07T10:37:56;98448.99;;;24.61;24.75
77893;BME280;67087;50.094;14.338;2023-05-07T10:40:21;98450.73;;;24.41;24.84
77893;BME280;67087;50.094;14.338;2023-05-07T10:42:56;98451.93;;;24.41;24.79
77893;BME280;67087;50.094;14.338;2023-05-07T10:45:12;98451.26;;;24.21;24.80
77893;BME280;67087;50.094;14.338;2023-05-07T10:50:20;98449.42;;;24.24;24.75
77893;BME280;67087;50.094;14.338;2023-05-07T10:52:27;98449.26;;;24.49;24.76
77893;BME280;67087;50.094;14.338;2023-05-07T10:59:42;98452.14;;;24.46;24.37
77893;BME280;67087;50.094;14.338;2023-05-07T11:02:08;98453.88;;;24.53;24.78
77893;BME280;67087;50.094;14.338;2023-05-07T11:04:33;98452.09;;;24.49;24.82
77893;BME280;67087;50.094;14.338;2023-05-07T11:09:23;98453.47;;;24.50;24.65
77893;BME280;67087;50.094;14.338;2023-05-07T11:11:50;98450.56;;;24.71;24.88
77893;BME280;67087;50.094;14.338;2023-05-07T11:14:14;98454.15;;;24.54;24.74
77893;BME280;67087;50.094;14.338;2023-05-07T11:16:40;98451.01;;;24.61;24.36
77893;BME280;67087;50.094;14.338;2023-05-07T11:19:04;98449.94;;;24.07;24.42
77893;BME280;67087;50.094;14.338;2023-05-07T11:21:35;98455.47;;;24.54;24.78
77893;BME280;67087;50.094;14.338;2023-05-07T11:23:56;98455.52;;;25.08;24.73
77893;BME280;67087;50.094;14.338;2023-05-07T11:26:20;98455.86;;;24.51;24.83
77893;BME280;67087;50.094;14.338;2023-05-07T11:28:45;98458.72;;;24.52;24.83
77893;BME280;67087;50.094;14.338;2023-05-07T11:31:10;98457.98;;;24.52;24.82
77893;BME280;67087;50.094;14.338;2023-05-07T11:33:37;98456.36;;;24.59;24.79
77893;BME280;67087;50.094;14.338;2023-05-07T11:36:03;98455.79;;;24.59;24.66
77893;BME280;67087;50.094;14.338;2023-05-07T11:38:26;98454.55;;;24.56;24.82
77893;BME280;67087;50.094;14.338;2023-05-07T11:40:52;98456.96;;;24.63;24.77
77893;BME280;67087;50.094;14.338;2023-05-07T11:43:16;98455.87;;;24.55;24.47
77893;BME280;67087;50.094;14.338;2023-05-07T11:45:41;98456.19;;;24.56;24.82
77893;BME280;67087;50.094;14.338;2023-05-07T11:48:06;98454.88;;;24.39;24.66
77893;BME280;67087;50.094;14.338;2023-05-07T11:50:31;98459.40;;;24.67;24.60
77893;BME280;67087;50.094;14.338;2023-05-07T11:52:57;98457.71;;;24.88;24.68
77893;BME280;67087;50.094;14.338;2023-05-07T11:55:24;98453.53;;;24.55;24.72
77893;BME280;67087;50.094;14.338;2023-05-07T11:57:47;98455.23;;;24.56;24.85
77893;BME280;67087;50.094;14.338;2023-05-07T12:00:16;98460.43;;;24.68;24.73
77893;BME280;67087;50.094;14.338;2023-05-07T12:02:38;98460.22;;;24.74;24.39
77893;BME280;67087;50.094;14.338;2023-05-07T12:05:04;98462.11;;;24.16;24.59
77893;BME280;67087;50.094;14.338;2023-05-07T12:07:28;98460.94;;;24.71;24.56
77893;BME280;67087;50.094;14.338;2023-05-07T12:09:53;98462.60;;;24.90;24.48
77893;BME280;67087;50.094;14.338;2023-05-07T12:12:18;98466.61;;;24.64;24.64
77893;BME280;67087;50.094;14.338;2023-05-07T12:14:45;98467.18;;;24.95;24.57
77893;BME280;67087;50.094;14.338;2023-05-07T12:17:10;98469.21;;;24.59;24.81
77893;BME280;67087;50.094;14.338;2023-05-07T12:19:35;98470.90;;;24.59;24.68
77893;BME280;67087;50.094;14.338;2023-05-07T12:22:00;98471.66;;;24.64;24.65
77893;BME280;67087;50.094;14.338;2023-05-07T12:24:24;98470.35;;;24.57;24.89
77893;BME280;67087;50.094;14.338;2023-05-07T12:26:50;98475.42;;;24.58;24.92
77893;BME280;67087;50.094;14.338;2023-05-07T12:29:15;98476.03;;;24.38;24.88
77893;BME280;67087;50.094;14.338;2023-05-07T12:31:41;98479.54;;;24.53;24.96
77893;BME280;67087;50.094;14.338;2023-05-07T12:34:05;98482.02;;;24.32;24.90
77893;BME280;67087;50.094;14.338;2023-05-07T12:36:36;98481.55;;;24.53;24.95
77893;BME280;67087;50.094;14.338;2023-05-07T12:38:55;98477.50;;;24.49;24.76
77893;BME280;67087;50.094;14.338;2023-05-07T12:41:21;98475.62;;;24.78;25.05
77893;BME280;67087;50.094;14.338;2023-05-07T12:43:46;98476.45;;;24.58;24.83
77893;BME280;67087;50.094;14.338;2023-05-07T12:46:11;98477.74;;;24.52;24.98
77893;BME280;67087;50.094;14.338;2023-05-07T12:48:37;98475.22;;;24.57;24.94